Kaiser — NHJK — position and weather

sailwx.info

Track history (hours):
 
Tides and Currents Weather Stations Pressure Air Temp Water Temp Dewpoint Dewpoint Depression Visibility Wind Speed Wind Dir Waves Ship Positions

Kaiser

Last reported at 2014-Sep-12 06:21 UTC. Time now 2014-Sep-16 17:33 UTC.
Position N 32°41' W 117°08'.

Length 207 m; draft 8.5 m.

Type: Tanker. MMSI: 303849000.

Date/timePositionNaut miles runAvg speedWind from/ knotsBaromVisibWave heightAir tempDewpointWater temp
2014-Sep-12 06:21N 32°41' W 117°08'0 0.0
2014-Sep-12 05:27N 32°41' W 117°08'0 0.0
2014-Sep-12 04:27N 32°41' W 117°08'0 0.0
2014-Sep-12 03:33N 32°41' W 117°08'2 0.2
2014-Sep-11 16:31N 32°42' W 117°10'6 6.6
2014-Sep-11 15:32N 32°36' W 117°13'1010.7
2014-Sep-11 14:33N 32°31' W 117°24'1010.4
2014-Sep-11 13:34N 32°30' W 117°36'7 7.4
2014-Sep-11 12:33N 32°30' W 117°27'7 7.3
2014-Sep-11 11:33N 32°31' W 117°36'1111.2
2014-Sep-11 10:33N 32°31' W 117°23'9 9.3
2014-Sep-11 09:33N 32°30' W 117°34'3 3.5
2014-Sep-11 08:33N 32°30' W 117°30'2 2.0
2014-Sep-11 07:33N 32°30' W 117°27'1110.6
2014-Sep-11 06:33N 32°35' W 117°38'1110.8
2014-Sep-11 05:33N 32°36' W 117°51'1111.1
2014-Sep-11 04:33N 32°36' W 118°04'1111.1
2014-Sep-11 03:33N 32°36' W 118°18'1211.3
2014-Sep-11 02:32N 32°37' W 118°31'1111.2
2014-Sep-11 01:31N 32°37' W 118°45'5 4.3
2014-Sep-11 00:18N 32°36' W 118°51'1013.2
2014-Sep-10 23:33N 32°36' W 118°39'1312.9
2014-Sep-10 22:31N 32°36' W 118°23'1213.0
2014-Sep-10 21:33N 32°36' W 118°08'3 2.6
2014-Sep-10 20:33N 32°36' W 118°05'1110.7
2014-Sep-10 19:33N 32°36' W 117°53'1110.7
2014-Sep-10 18:33N 32°36' W 117°40'1110.8
2014-Sep-10 17:33N 32°36' W 117°27'1110.8
2014-Sep-10 16:33N 32°38' W 117°14'  
2014-Sep-07 03:33N 32°41' W 117°08'4 0.1
2014-Sep-05 22:32N 32°43' W 117°12'8 8.5
2014-Sep-05 21:33N 32°36' W 117°18'1311.8
2014-Sep-05 20:29N 32°36' W 117°33'1111.7
2014-Sep-05 19:33N 32°36' W 117°45'4213.2
2014-Sep-05 16:25N 32°37' W 118°35'4 0.6
2014-Sep-05 09:28N 32°36' W 118°40'11 5.0
2014-Sep-05 07:19N 32°36' W 118°53'911.0
2014-Sep-05 06:31N 32°36' W 118°43'2 0.7
2014-Sep-05 03:33N 32°36' W 118°40'1210.9
2014-Sep-05 02:27N 32°36' W 118°26'3211.1
2014-Sep-04 23:33N 32°36' W 117°48'2411.9
2014-Sep-04 21:30N 32°36' W 118°17'1511.8
2014-Sep-04 20:13N 32°36' W 118°35'4 4.7
2014-Sep-04 19:17N 32°37' W 118°30'1110.4
2014-Sep-04 18:11N 32°36' W 118°16'1 1.4
2014-Sep-04 17:32N 32°37' W 118°15'7 1.1
2014-Sep-04 11:20N 32°38' W 118°23'24 3.9
2014-Sep-04 05:15N 32°60' W 118°13'6 1.1
2014-Sep-03 23:28N 33°04' W 118°17'2 0.4
2014-Sep-03 17:33N 33°02' W 118°16'19 6.3
2014-Sep-03 14:31N 32°48' W 118°00'14 7.1
2014-Sep-03 12:30N 32°59' W 118°11'8 8.0
2014-Sep-03 11:33N 33°05' W 118°17'9 6.9
2014-Sep-03 10:17N 32°59' W 118°10'8 7.8
2014-Sep-03 09:19N 32°53' W 118°04'8 7.6
2014-Sep-03 08:19N 32°59' W 118°10'7 8.3
2014-Sep-03 07:25N 33°04' W 118°17'20 6.5
2014-Sep-03 04:19N 32°50' W 117°60'15 8.1
2014-Sep-03 02:27N 32°41' W 118°14'7 8.1
2014-Sep-03 01:33N 32°37' W 118°21'2 0.5
2014-Sep-02 21:33N 32°36' W 118°24'1612.9
2014-Sep-02 20:21N 32°36' W 118°05'1112.4
2014-Sep-02 19:30N 32°36' W 117°53'1312.3
2014-Sep-02 18:28N 32°36' W 117°37'1212.9
2014-Sep-02 17:32N 32°36' W 117°23'  
Track history (hours):
 
Tides and Currents Weather Stations Pressure Air Temp Water Temp Dewpoint Dewpoint Depression Visibility Wind Speed Wind Dir Waves Ship Positions

Kaiser

Last reported at 2014-Sep-12 06:21 UTC. Time now 2014-Sep-16 17:33 UTC.
Position N 32°41' W 117°08'.

Length 207 m; draft 8.5 m.

Type: Tanker. MMSI: 303849000.

Date/timePositionNaut miles runAvg speedWind from/ knotsBaromVisibWave heightAir tempDewpointWater temp
2014-Sep-12 06:21N 32°41' W 117°08'0 0.0
2014-Sep-12 05:27N 32°41' W 117°08'0 0.0
2014-Sep-12 04:27N 32°41' W 117°08'0 0.0
2014-Sep-12 03:33N 32°41' W 117°08'2 0.2
2014-Sep-11 16:31N 32°42' W 117°10'6 6.6
2014-Sep-11 15:32N 32°36' W 117°13'1010.7
2014-Sep-11 14:33N 32°31' W 117°24'1010.4
2014-Sep-11 13:34N 32°30' W 117°36'7 7.4
2014-Sep-11 12:33N 32°30' W 117°27'7 7.3
2014-Sep-11 11:33N 32°31' W 117°36'1111.2
2014-Sep-11 10:33N 32°31' W 117°23'9 9.3
2014-Sep-11 09:33N 32°30' W 117°34'3 3.5
2014-Sep-11 08:33N 32°30' W 117°30'2 2.0
2014-Sep-11 07:33N 32°30' W 117°27'1110.6
2014-Sep-11 06:33N 32°35' W 117°38'1110.8
2014-Sep-11 05:33N 32°36' W 117°51'1111.1
2014-Sep-11 04:33N 32°36' W 118°04'1111.1
2014-Sep-11 03:33N 32°36' W 118°18'1211.3
2014-Sep-11 02:32N 32°37' W 118°31'1111.2
2014-Sep-11 01:31N 32°37' W 118°45'5 4.3
2014-Sep-11 00:18N 32°36' W 118°51'1013.2
2014-Sep-10 23:33N 32°36' W 118°39'1312.9
2014-Sep-10 22:31N 32°36' W 118°23'1213.0
2014-Sep-10 21:33N 32°36' W 118°08'3 2.6
2014-Sep-10 20:33N 32°36' W 118°05'1110.7
2014-Sep-10 19:33N 32°36' W 117°53'1110.7
2014-Sep-10 18:33N 32°36' W 117°40'1110.8
2014-Sep-10 17:33N 32°36' W 117°27'1110.8
2014-Sep-10 16:33N 32°38' W 117°14'  
2014-Sep-07 03:33N 32°41' W 117°08'4 0.1
2014-Sep-05 22:32N 32°43' W 117°12'8 8.5
2014-Sep-05 21:33N 32°36' W 117°18'1311.8
2014-Sep-05 20:29N 32°36' W 117°33'1111.7
2014-Sep-05 19:33N 32°36' W 117°45'4213.2
2014-Sep-05 16:25N 32°37' W 118°35'4 0.6
2014-Sep-05 09:28N 32°36' W 118°40'11 5.0
2014-Sep-05 07:19N 32°36' W 118°53'911.0
2014-Sep-05 06:31N 32°36' W 118°43'2 0.7
2014-Sep-05 03:33N 32°36' W 118°40'1210.9
2014-Sep-05 02:27N 32°36' W 118°26'3211.1
2014-Sep-04 23:33N 32°36' W 117°48'2411.9
2014-Sep-04 21:30N 32°36' W 118°17'1511.8
2014-Sep-04 20:13N 32°36' W 118°35'4 4.7
2014-Sep-04 19:17N 32°37' W 118°30'1110.4
2014-Sep-04 18:11N 32°36' W 118°16'1 1.4
2014-Sep-04 17:32N 32°37' W 118°15'7 1.1
2014-Sep-04 11:20N 32°38' W 118°23'24 3.9
2014-Sep-04 05:15N 32°60' W 118°13'6 1.1
2014-Sep-03 23:28N 33°04' W 118°17'2 0.4
2014-Sep-03 17:33N 33°02' W 118°16'19 6.3
2014-Sep-03 14:31N 32°48' W 118°00'14 7.1
2014-Sep-03 12:30N 32°59' W 118°11'8 8.0
2014-Sep-03 11:33N 33°05' W 118°17'9 6.9
2014-Sep-03 10:17N 32°59' W 118°10'8 7.8
2014-Sep-03 09:19N 32°53' W 118°04'8 7.6
2014-Sep-03 08:19N 32°59' W 118°10'7 8.3
2014-Sep-03 07:25N 33°04' W 118°17'20 6.5
2014-Sep-03 04:19N 32°50' W 117°60'15 8.1
2014-Sep-03 02:27N 32°41' W 118°14'7 8.1
2014-Sep-03 01:33N 32°37' W 118°21'2 0.5
2014-Sep-02 21:33N 32°36' W 118°24'1612.9
2014-Sep-02 20:21N 32°36' W 118°05'1112.4
2014-Sep-02 19:30N 32°36' W 117°53'1312.3
2014-Sep-02 18:28N 32°36' W 117°37'1212.9
2014-Sep-02 17:32N 32°36' W 117°23'  

Dump ship's entire track history